Armour, SD

12:46 PM CDT on July 28, 2015 (GMT -0500)
West Farm | | Change Station
CLOSE
Current Station
Personal Weather Station
Location: Parkston, SD
Elevation: 1444 ft
Nearby Weather Stations

Elev 1444 ft 43.37 °N, 98.03 °W | Updated 11 seconds ago

Clear
Clear
74.7 °F
Feels Like 77 °F
N
21.5
Wind Variable Wind from WSW
Gusts 24.8 mph

Today
High -- | Low -- °F
--% Chance of Precip.
Yesterday
High -- | Low -- °F
Precip. -- in
6:19 AM 9:00 PM
Waxing Gibbous, 90% visible
Pressure 29.87 in
Visibility 10.0 miles
Clouds Clear
Heat Index 77 °F
Dew Point 62 °F
Humidity 64%
Rainfall 0.60 in
Snow Depth Not available.
UV 7.0 out of 12
Pollen 2.40 out of 12
Air Quality Not available.
Flu Activity Not available.
METAR KMHE 281653Z AUTO 29015G21KT 10SM CLR 24/17 A2990 RMK AO2 SLP114 T02390172

More Conditions Fewer Conditions

Pressure 29.87 in
Visibility 10.0 miles
Clouds Clear
Heat Index 77 °F
Dew Point 62 °F
Humidity 64%
Rainfall 0.60 in
Snow Depth Not available.
UV 7.0 out of 12
Pollen 2.40 out of 12
Air Quality Not available.
Flu Activity Not available.
METAR KMHE 281653Z AUTO 29015G21KT 10SM CLR 24/17 A2990 RMK AO2 SLP114 T02390172

More Conditions Fewer Conditions

10-Day Weather Forecast

×

Almanac

Astronomy

Jul. 28, 2015 Rise Set
Actual Time
Civil Twilight
Nautical Twilight
Astronomical Twilight
Moon
Length of Visible Light
Length of Day
Tomorrow will be .
, % of the Moon is Illuminated

Today's Extremes

State Highs State Lows

Community

WunderPhotos

Upload Photos

1,841,900 photos uploaded!

WunderBlogs® & News

Nearby

Air Quality

  Air Quality AQ Index Pollutant
Not available.

Snow Depth

Station Depth Elevation

Earthquake Activity

City Distance Mag. Time & Date
Minimum magnitude displayed is 2.5.

Coastal Water Temperatures

Place Temperature

Stations

Nearby Weather Stations

Station Location Temp. Windchill Dew Point Humidity Wind Precip. Elev Updated Type